sensor_id;sensor_type;location;lat;lon;timestamp;pressure;altitude;pressure_sealevel;temperature;humidity
51687;BME280;37774;52.192;4.584;2023-04-03T00:01:20;103718.38;;;1.55;100.00
51687;BME280;37774;52.192;4.584;2023-04-03T00:04:06;103727.13;;;1.69;100.00
51687;BME280;37774;52.192;4.584;2023-04-03T00:06:51;103733.19;;;1.69;100.00
51687;BME280;37774;52.192;4.584;2023-04-03T00:09:37;103774.91;;;1.90;100.00
51687;BME280;37774;52.192;4.584;2023-04-03T00:12:22;103689.91;;;1.62;100.00
51687;BME280;37774;52.192;4.584;2023-04-03T00:15:08;103758.41;;;1.87;100.00
51687;BME280;37774;52.192;4.584;2023-04-03T00:17:55;103711.78;;;1.46;100.00
51687;BME280;37774;52.192;4.584;2023-04-03T00:20:41;103636.84;;;0.93;100.00
51687;BME280;37774;52.192;4.584;2023-04-03T00:23:26;103620.31;;;0.77;100.00
51687;BME280;37774;52.192;4.584;2023-04-03T00:26:12;103710.28;;;1.04;100.00
51687;BME280;37774;52.192;4.584;2023-04-03T00:28:57;103716.88;;;1.12;100.00
51687;BME280;37774;52.192;4.584;2023-04-03T00:31:43;103648.03;;;0.61;100.00
51687;BME280;37774;52.192;4.584;2023-04-03T00:34:31;103679.53;;;0.82;100.00
51687;BME280;37774;52.192;4.584;2023-04-03T00:37:16;103820.16;;;1.56;100.00
51687;BME280;37774;52.192;4.584;2023-04-03T00:40:03;103786.06;;;1.35;100.00
51687;BME280;37774;52.192;4.584;2023-04-03T00:42:52;103833.97;;;1.58;100.00
51687;BME280;37774;52.192;4.584;2023-04-03T00:45:41;103845.78;;;1.56;100.00
51687;BME280;37774;52.192;4.584;2023-04-03T00:48:29;103753.91;;;0.83;100.00
51687;BME280;37774;52.192;4.584;2023-04-03T00:51:20;103848.66;;;1.49;100.00
51687;BME280;37774;52.192;4.584;2023-04-03T00:54:07;103772.19;;;0.88;100.00
51687;BME280;37774;52.192;4.584;2023-04-03T00:56:54;103786.63;;;0.98;100.00
51687;BME280;37774;52.192;4.584;2023-04-03T00:59:45;103864.44;;;1.43;100.00
51687;BME280;37774;52.192;4.584;2023-04-03T01:02:33;103823.47;;;1.10;100.00
51687;BME280;37774;52.192;4.584;2023-04-03T01:05:20;103702.34;;;0.36;100.00
51687;BME280;37774;52.192;4.584;2023-04-03T01:08:08;103535.63;;;-0.77;100.00
51687;BME280;37774;52.192;4.584;2023-04-03T01:10:55;103875.00;;;1.36;100.00
51687;BME280;37774;52.192;4.584;2023-04-03T01:13:42;103578.78;;;-0.49;100.00
51687;BME280;37774;52.192;4.584;2023-04-03T01:16:29;103899.75;;;1.25;100.00
51687;BME280;37774;52.192;4.584;2023-04-03T01:19:16;103893.84;;;1.26;100.00
51687;BME280;37774;52.192;4.584;2023-04-03T01:22:15;103892.44;;;1.29;100.00
51687;BME280;37774;52.192;4.584;2023-04-03T01:25:06;103718.75;;;0.17;100.00
51687;BME280;37774;52.192;4.584;2023-04-03T01:27:52;103886.06;;;1.24;100.00
51687;BME280;37774;52.192;4.584;2023-04-03T01:30:43;103888.47;;;1.23;100.00
51687;BME280;37774;52.192;4.584;2023-04-03T01:33:32;103828.06;;;0.61;100.00
51687;BME280;37774;52.192;4.584;2023-04-03T01:36:20;103855.16;;;0.80;100.00
51687;BME280;37774;52.192;4.584;2023-04-03T01:39:05;103819.75;;;0.64;100.00
51687;BME280;37774;52.192;4.584;2023-04-03T01:41:51;103902.38;;;1.04;100.00
51687;BME280;37774;52.192;4.584;2023-04-03T01:44:37;103643.81;;;-0.56;100.00
51687;BME280;37774;52.192;4.584;2023-04-03T01:47:23;103866.19;;;0.68;100.00
51687;BME280;37774;52.192;4.584;2023-04-03T01:50:09;103847.78;;;0.52;100.00
51687;BME280;37774;52.192;4.584;2023-04-03T01:52:55;103889.66;;;0.63;100.00
51687;BME280;37774;52.192;4.584;2023-04-03T01:55:41;103897.44;;;0.64;100.00
51687;BME280;37774;52.192;4.584;2023-04-03T01:58:26;103887.22;;;0.54;100.00
51687;BME280;37774;52.192;4.584;2023-04-03T02:01:12;103924.81;;;0.76;100.00
51687;BME280;37774;52.192;4.584;2023-04-03T02:03:57;103862.66;;;0.35;100.00
51687;BME280;37774;52.192;4.584;2023-04-03T02:06:44;103929.94;;;0.76;100.00
51687;BME280;37774;52.192;4.584;2023-04-03T02:09:29;103940.69;;;0.61;100.00
51687;BME280;37774;52.192;4.584;2023-04-03T02:12:15;103872.47;;;0.31;100.00
51687;BME280;37774;52.192;4.584;2023-04-03T02:15:00;103887.84;;;0.31;100.00
51687;BME280;37774;52.192;4.584;2023-04-03T02:17:46;103871.47;;;0.18;100.00
51687;BME280;37774;52.192;4.584;2023-04-03T02:20:31;103915.47;;;0.45;100.00
51687;BME280;37774;52.192;4.584;2023-04-03T02:23:18;103959.53;;;0.62;100.00
51687;BME280;37774;52.192;4.584;2023-04-03T02:26:06;103889.38;;;0.18;100.00
51687;BME280;37774;52.192;4.584;2023-04-03T02:28:51;103936.97;;;0.37;100.00
51687;BME280;37774;52.192;4.584;2023-04-03T02:31:37;103953.59;;;0.42;100.00
51687;BME280;37774;52.192;4.584;2023-04-03T02:34:22;103975.13;;;0.54;100.00
51687;BME280;37774;52.192;4.584;2023-04-03T02:37:07;103916.59;;;0.07;100.00
51687;BME280;37774;52.192;4.584;2023-04-03T02:39:54;103986.25;;;0.55;100.00
51687;BME280;37774;52.192;4.584;2023-04-03T02:42:40;103826.38;;;-0.42;100.00
51687;BME280;37774;52.192;4.584;2023-04-03T02:45:25;103957.81;;;0.31;100.00
51687;BME280;37774;52.192;4.584;2023-04-03T02:48:11;103873.97;;;-0.13;100.00
51687;BME280;37774;52.192;4.584;2023-04-03T02:50:56;103999.44;;;0.60;100.00
51687;BME280;37774;52.192;4.584;2023-04-03T02:53:42;103973.03;;;0.40;100.00
51687;BME280;37774;52.192;4.584;2023-04-03T02:56:29;103909.19;;;0.00;100.00
51687;BME280;37774;52.192;4.584;2023-04-03T02:59:14;103995.22;;;0.50;100.00
51687;BME280;37774;52.192;4.584;2023-04-03T03:02:00;103968.91;;;0.21;100.00
51687;BME280;37774;52.192;4.584;2023-04-03T03:04:45;104015.00;;;0.42;100.00
51687;BME280;37774;52.192;4.584;2023-04-03T03:07:31;103974.81;;;0.20;100.00
51687;BME280;37774;52.192;4.584;2023-04-03T03:10:16;103937.84;;;0.06;100.00
51687;BME280;37774;52.192;4.584;2023-04-03T03:13:03;103920.00;;;-0.13;100.00
51687;BME280;37774;52.192;4.584;2023-04-03T03:15:48;104021.66;;;0.40;100.00
51687;BME280;37774;52.192;4.584;2023-04-03T03:18:33;104030.09;;;0.39;100.00
51687;BME280;37774;52.192;4.584;2023-04-03T03:21:19;103984.81;;;-0.02;100.00
51687;BME280;37774;52.192;4.584;2023-04-03T03:24:05;103967.53;;;-0.15;100.00
51687;BME280;37774;52.192;4.584;2023-04-03T03:26:50;103691.81;;;-1.71;100.00
51687;BME280;37774;52.192;4.584;2023-04-03T03:29:37;104049.16;;;0.32;100.00
51687;BME280;37774;52.192;4.584;2023-04-03T03:32:23;103696.38;;;-1.78;100.00
51687;BME280;37774;52.192;4.584;2023-04-03T03:35:08;103771.16;;;-1.49;100.00
51687;BME280;37774;52.192;4.584;2023-04-03T03:37:54;103992.53;;;-0.32;100.00
51687;BME280;37774;52.192;4.584;2023-04-03T03:40:39;104088.06;;;0.09;100.00
51687;BME280;37774;52.192;4.584;2023-04-03T03:43:25;104045.22;;;-0.23;100.00
51687;BME280;37774;52.192;4.584;2023-04-03T03:46:12;104027.78;;;-0.38;100.00
51687;BME280;37774;52.192;4.584;2023-04-03T03:48:59;103793.56;;;-2.02;100.00
51687;BME280;37774;52.192;4.584;2023-04-03T03:51:44;103619.25;;;-2.99;100.00
51687;BME280;37774;52.192;4.584;2023-04-03T03:54:30;104118.56;;;-0.03;100.00
51687;BME280;37774;52.192;4.584;2023-04-03T03:57:16;104132.88;;;-0.05;100.00
51687;BME280;37774;52.192;4.584;2023-04-03T04:00:02;104028.19;;;-0.71;100.00
51687;BME280;37774;52.192;4.584;2023-04-03T04:02:49;104141.94;;;-0.09;100.00
51687;BME280;37774;52.192;4.584;2023-04-03T04:05:34;104138.91;;;-0.05;100.00
51687;BME280;37774;52.192;4.584;2023-04-03T04:08:20;103891.56;;;-1.62;100.00
51687;BME280;37774;52.192;4.584;2023-04-03T04:11:06;104151.69;;;-0.05;100.00
51687;BME280;37774;52.192;4.584;2023-04-03T04:13:52;104086.06;;;-0.53;100.00
51687;BME280;37774;52.192;4.584;2023-04-03T04:16:37;104156.03;;;-0.23;100.00
51687;BME280;37774;52.192;4.584;2023-04-03T04:19:38;104037.41;;;-1.01;100.00
51687;BME280;37774;52.192;4.584;2023-04-03T04:22:24;104136.56;;;-0.50;100.00
51687;BME280;37774;52.192;4.584;2023-04-03T04:25:10;104176.69;;;-0.30;100.00
51687;BME280;37774;52.192;4.584;2023-04-03T04:27:55;104182.16;;;-0.36;100.00
51687;BME280;37774;52.192;4.584;2023-04-03T04:30:41;104189.19;;;-0.33;100.00
51687;BME280;37774;52.192;4.584;2023-04-03T04:33:26;103899.03;;;-2.20;100.00
51687;BME280;37774;52.192;4.584;2023-04-03T04:36:13;104125.25;;;-0.71;100.00
51687;BME280;37774;52.192;4.584;2023-04-03T04:38:59;104199.00;;;-0.38;100.00
51687;BME280;37774;52.192;4.584;2023-04-03T04:41:44;104082.66;;;-1.09;100.00
51687;BME280;37774;52.192;4.584;2023-04-03T04:44:29;104128.75;;;-0.80;100.00
51687;BME280;37774;52.192;4.584;2023-04-03T04:47:15;104151.44;;;-0.55;100.00
51687;BME280;37774;52.192;4.584;2023-04-03T04:50:05;104215.66;;;-0.13;100.00
51687;BME280;37774;52.192;4.584;2023-04-03T04:52:52;104111.47;;;-0.82;100.00
51687;BME280;37774;52.192;4.584;2023-04-03T04:55:37;104143.81;;;-0.64;100.00
51687;BME280;37774;52.192;4.584;2023-04-03T04:58:23;104198.47;;;-0.53;100.00
51687;BME280;37774;52.192;4.584;2023-04-03T05:01:10;104219.44;;;-0.38;100.00
51687;BME280;37774;52.192;4.584;2023-04-03T05:03:56;104220.00;;;-0.32;100.00
51687;BME280;37774;52.192;4.584;2023-04-03T05:06:41;103851.97;;;-2.69;100.00
51687;BME280;37774;52.192;4.584;2023-04-03T05:09:28;104181.38;;;-0.63;100.00
51687;BME280;37774;52.192;4.584;2023-04-03T05:12:13;104230.91;;;-0.43;100.00
51687;BME280;37774;52.192;4.584;2023-04-03T05:14:59;104038.28;;;-1.57;100.00
51687;BME280;37774;52.192;4.584;2023-04-03T05:17:44;104102.06;;;-1.20;100.00
51687;BME280;37774;52.192;4.584;2023-04-03T05:20:30;104184.28;;;-0.96;100.00
51687;BME280;37774;52.192;4.584;2023-04-03T05:23:16;104127.28;;;-1.23;100.00
51687;BME280;37774;52.192;4.584;2023-04-03T05:26:03;104024.00;;;-1.92;100.00
51687;BME280;37774;52.192;4.584;2023-04-03T05:28:49;104268.66;;;-0.49;100.00
51687;BME280;37774;52.192;4.584;2023-04-03T05:31:35;104073.41;;;-1.63;100.00
51687;BME280;37774;52.192;4.584;2023-04-03T05:34:20;104280.22;;;-0.44;100.00
51687;BME280;37774;52.192;4.584;2023-04-03T05:37:05;104254.69;;;-0.53;100.00
51687;BME280;37774;52.192;4.584;2023-04-03T05:39:51;104213.63;;;-0.82;100.00
51687;BME280;37774;52.192;4.584;2023-04-03T05:42:38;104146.19;;;-1.21;100.00
51687;BME280;37774;52.192;4.584;2023-04-03T05:45:23;104298.28;;;-0.23;100.00
51687;BME280;37774;52.192;4.584;2023-04-03T05:48:09;104312.44;;;-0.27;100.00
51687;BME280;37774;52.192;4.584;2023-04-03T05:50:58;104178.25;;;-0.97;100.00
51687;BME280;37774;52.192;4.584;2023-04-03T05:53:43;104096.97;;;-1.57;100.00
51687;BME280;37774;52.192;4.584;2023-04-03T05:56:31;104222.78;;;-0.76;100.00
51687;BME280;37774;52.192;4.584;2023-04-03T05:59:18;103973.50;;;-2.13;100.00
51687;BME280;37774;52.192;4.584;2023-04-03T06:02:04;104384.13;;;-0.17;100.00
51687;BME280;37774;52.192;4.584;2023-04-03T06:04:50;104041.50;;;-1.86;100.00
51687;BME280;37774;52.192;4.584;2023-04-03T06:07:36;104178.59;;;-1.02;100.00
51687;BME280;37774;52.192;4.584;2023-04-03T06:10:21;104238.91;;;-0.57;100.00
51687;BME280;37774;52.192;4.584;2023-04-03T06:13:09;104029.94;;;-1.73;100.00
51687;BME280;37774;52.192;4.584;2023-04-03T06:15:55;104231.72;;;-0.62;100.00
51687;BME280;37774;52.192;4.584;2023-04-03T06:18:42;104118.56;;;-1.16;100.00
51687;BME280;37774;52.192;4.584;2023-04-03T06:21:28;104094.47;;;-1.29;100.00
51687;BME280;37774;52.192;4.584;2023-04-03T06:24:15;104124.25;;;-1.10;100.00
51687;BME280;37774;52.192;4.584;2023-04-03T06:27:01;104233.22;;;-0.08;100.00
51687;BME280;37774;52.192;4.584;2023-04-03T06:29:47;103993.72;;;-1.60;100.00
51687;BME280;37774;52.192;4.584;2023-04-03T06:32:33;104186.56;;;-0.24;100.00
51687;BME280;37774;52.192;4.584;2023-04-03T06:35:19;104081.94;;;-0.70;100.00
51687;BME280;37774;52.192;4.584;2023-04-03T06:38:07;104373.94;;;1.07;100.00
51687;BME280;37774;52.192;4.584;2023-04-03T06:40:54;104322.53;;;0.95;100.00
51687;BME280;37774;52.192;4.584;2023-04-03T06:43:40;104261.31;;;0.58;100.00
51687;BME280;37774;52.192;4.584;2023-04-03T06:46:26;103730.28;;;-2.26;100.00
51687;BME280;37774;52.192;4.584;2023-04-03T06:49:13;104333.84;;;1.37;100.00
51687;BME280;37774;52.192;4.584;2023-04-03T06:51:59;104315.28;;;1.40;100.00
51687;BME280;37774;52.192;4.584;2023-04-03T06:54:44;104186.88;;;0.76;100.00
51687;BME280;37774;52.192;4.584;2023-04-03T06:57:31;104204.41;;;0.82;100.00
51687;BME280;37774;52.192;4.584;2023-04-03T07:00:17;103918.44;;;-0.80;100.00
51687;BME280;37774;52.192;4.584;2023-04-03T07:03:03;104165.25;;;0.83;100.00
51687;BME280;37774;52.192;4.584;2023-04-03T07:05:50;104110.59;;;0.82;100.00
51687;BME280;37774;52.192;4.584;2023-04-03T07:08:35;104191.75;;;1.44;100.00
51687;BME280;37774;52.192;4.584;2023-04-03T07:11:21;104014.00;;;0.50;100.00
51687;BME280;37774;52.192;4.584;2023-04-03T07:14:07;104087.81;;;1.06;100.00
51687;BME280;37774;52.192;4.584;2023-04-03T07:16:53;103723.19;;;-0.94;100.00
51687;BME280;37774;52.192;4.584;2023-04-03T07:19:39;103717.38;;;-0.62;100.00
51687;BME280;37774;52.192;4.584;2023-04-03T07:22:26;103983.97;;;1.10;100.00
51687;BME280;37774;52.192;4.584;2023-04-03T07:25:12;103928.53;;;0.90;100.00
51687;BME280;37774;52.192;4.584;2023-04-03T07:27:58;103684.41;;;-0.28;100.00
51687;BME280;37774;52.192;4.584;2023-04-03T07:30:46;103900.19;;;1.09;100.00
51687;BME280;37774;52.192;4.584;2023-04-03T07:33:34;103723.03;;;0.49;100.00
51687;BME280;37774;52.192;4.584;2023-04-03T07:36:22;103704.59;;;0.64;100.00
51687;BME280;37774;52.192;4.584;2023-04-03T07:39:09;103978.03;;;2.41;100.00
51687;BME280;37774;52.192;4.584;2023-04-03T07:41:55;103909.91;;;2.00;100.00
51687;BME280;37774;52.192;4.584;2023-04-03T07:44:42;103639.47;;;0.82;100.00
51687;BME280;37774;52.192;4.584;2023-04-03T07:47:28;103603.94;;;0.75;100.00
51687;BME280;37774;52.192;4.584;2023-04-03T07:50:15;103805.00;;;2.27;100.00
51687;BME280;37774;52.192;4.584;2023-04-03T07:53:01;103506.09;;;0.79;100.00
51687;BME280;37774;52.192;4.584;2023-04-03T07:55:48;103600.72;;;1.58;100.00
51687;BME280;37774;52.192;4.584;2023-04-03T07:58:39;103816.78;;;2.83;100.00
51687;BME280;37774;52.192;4.584;2023-04-03T08:01:25;103873.56;;;3.47;100.00
51687;BME280;37774;52.192;4.584;2023-04-03T08:04:11;103846.59;;;3.54;100.00
51687;BME280;37774;52.192;4.584;2023-04-03T08:06:56;103691.50;;;2.67;100.00
51687;BME280;37774;52.192;4.584;2023-04-03T08:09:43;103805.78;;;3.59;100.00
51687;BME280;37774;52.192;4.584;2023-04-03T08:12:30;103726.16;;;3.35;100.00
51687;BME280;37774;52.192;4.584;2023-04-03T08:15:19;103715.75;;;3.59;100.00
51687;BME280;37774;52.192;4.584;2023-04-03T08:18:05;103443.34;;;2.17;100.00
51687;BME280;37774;52.192;4.584;2023-04-03T08:20:51;103583.59;;;3.43;100.00
51687;BME280;37774;52.192;4.584;2023-04-03T08:23:38;103549.41;;;3.05;100.00
51687;BME280;37774;52.192;4.584;2023-04-03T08:26:27;103590.34;;;3.68;100.00
51687;BME280;37774;52.192;4.584;2023-04-03T08:29:17;103430.53;;;2.95;100.00
51687;BME280;37774;52.192;4.584;2023-04-03T08:32:05;103376.00;;;2.99;100.00
51687;BME280;37774;52.192;4.584;2023-04-03T08:34:51;103446.94;;;3.77;100.00
51687;BME280;37774;52.192;4.584;2023-04-03T08:37:38;103608.41;;;4.50;100.00
51687;BME280;37774;52.192;4.584;2023-04-03T08:40:26;103677.31;;;5.25;100.00
51687;BME280;37774;52.192;4.584;2023-04-03T08:43:32;103764.09;;;5.96;100.00
51687;BME280;37774;52.192;4.584;2023-04-03T08:46:22;103879.00;;;6.93;100.00
51687;BME280;37774;52.192;4.584;2023-04-03T08:49:18;103758.25;;;6.29;100.00
51687;BME280;37774;52.192;4.584;2023-04-03T08:52:11;103827.41;;;7.11;100.00
51687;BME280;37774;52.192;4.584;2023-04-03T08:55:01;103782.00;;;6.85;100.00
51687;BME280;37774;52.192;4.584;2023-04-03T08:57:48;103581.91;;;5.85;100.00
51687;BME280;37774;52.192;4.584;2023-04-03T09:00:43;103743.28;;;7.35;100.00
51687;BME280;37774;52.192;4.584;2023-04-03T09:03:36;103672.00;;;7.23;100.00
51687;BME280;37774;52.192;4.584;2023-04-03T09:06:26;103738.34;;;7.56;100.00
51687;BME280;37774;52.192;4.584;2023-04-03T09:09:25;103324.22;;;5.43;100.00
51687;BME280;37774;52.192;4.584;2023-04-03T09:12:20;103501.25;;;6.70;100.00
51687;BME280;37774;52.192;4.584;2023-04-03T09:15:15;103419.84;;;6.44;100.00
51687;BME280;37774;52.192;4.584;2023-04-03T09:18:08;103434.00;;;6.87;100.00
51687;BME280;37774;52.192;4.584;2023-04-03T09:21:04;103570.41;;;7.98;100.00
51687;BME280;37774;52.192;4.584;2023-04-03T09:23:55;103153.88;;;5.23;100.00
51687;BME280;37774;52.192;4.584;2023-04-03T09:26:46;103107.50;;;4.90;100.00
51687;BME280;37774;52.192;4.584;2023-04-03T09:29:39;103193.16;;;6.04;100.00
51687;BME280;37774;52.192;4.584;2023-04-03T09:32:28;103478.94;;;7.80;100.00
51687;BME280;37774;52.192;4.584;2023-04-03T09:35:24;103349.25;;;7.36;100.00
51687;BME280;37774;52.192;4.584;2023-04-03T09:38:21;102997.16;;;5.70;100.00
51687;BME280;37774;52.192;4.584;2023-04-03T09:41:16;103279.97;;;7.48;100.00
51687;BME280;37774;52.192;4.584;2023-04-03T09:44:02;103158.78;;;6.79;100.00
51687;BME280;37774;52.192;4.584;2023-04-03T09:46:48;103010.38;;;5.96;100.00
51687;BME280;37774;52.192;4.584;2023-04-03T09:49:34;103335.34;;;8.32;100.00
51687;BME280;37774;52.192;4.584;2023-04-03T09:52:22;103378.34;;;8.69;100.00
51687;BME280;37774;52.192;4.584;2023-04-03T09:55:15;103293.94;;;8.33;100.00
51687;BME280;37774;52.192;4.584;2023-04-03T09:58:04;103182.41;;;7.67;100.00
51687;BME280;37774;52.192;4.584;2023-04-03T10:00:54;103185.81;;;7.66;100.00
51687;BME280;37774;52.192;4.584;2023-04-03T10:03:41;103242.44;;;7.99;100.00
51687;BME280;37774;52.192;4.584;2023-04-03T10:06:32;103458.03;;;9.60;100.00
51687;BME280;37774;52.192;4.584;2023-04-03T10:09:22;103311.47;;;8.60;100.00
51687;BME280;37774;52.192;4.584;2023-04-03T10:12:11;103298.44;;;8.59;100.00
51687;BME280;37774;52.192;4.584;2023-04-03T10:14:59;103466.19;;;10.16;100.00
51687;BME280;37774;52.192;4.584;2023-04-03T10:17:57;103410.06;;;9.97;100.00
51687;BME280;37774;52.192;4.584;2023-04-03T10:20:48;103379.63;;;9.46;100.00
51687;BME280;37774;52.192;4.584;2023-04-03T10:23:41;103464.19;;;9.86;100.00
51687;BME280;37774;52.192;4.584;2023-04-03T10:26:35;103349.59;;;9.77;100.00
51687;BME280;37774;52.192;4.584;2023-04-03T10:29:43;103330.41;;;9.49;100.00
51687;BME280;37774;52.192;4.584;2023-04-03T10:32:48;103458.06;;;10.56;100.00
51687;BME280;37774;52.192;4.584;2023-04-03T10:35:44;103416.84;;;9.93;100.00
51687;BME280;37774;52.192;4.584;2023-04-03T10:38:42;103459.13;;;10.14;100.00
51687;BME280;37774;52.192;4.584;2023-04-03T10:41:39;103270.88;;;8.84;100.00
51687;BME280;37774;52.192;4.584;2023-04-03T10:44:36;103401.47;;;10.00;100.00
51687;BME280;37774;52.192;4.584;2023-04-03T10:47:33;103422.03;;;10.18;100.00
51687;BME280;37774;52.192;4.584;2023-04-03T10:50:28;103346.28;;;9.81;100.00
51687;BME280;37774;52.192;4.584;2023-04-03T10:53:22;103458.56;;;10.45;100.00
51687;BME280;37774;52.192;4.584;2023-04-03T10:56:13;103418.28;;;10.34;100.00
51687;BME280;37774;52.192;4.584;2023-04-03T10:59:08;103475.31;;;11.33;100.00
51687;BME280;37774;52.192;4.584;2023-04-03T11:02:01;103449.59;;;11.15;100.00
51687;BME280;37774;52.192;4.584;2023-04-03T11:04:54;103445.63;;;11.00;100.00
51687;BME280;37774;52.192;4.584;2023-04-03T11:07:45;103358.63;;;10.13;100.00
51687;BME280;37774;52.192;4.584;2023-04-03T11:10:37;103386.44;;;10.93;100.00
51687;BME280;37774;52.192;4.584;2023-04-03T11:13:30;103325.25;;;10.23;100.00
51687;BME280;37774;52.192;4.584;2023-04-03T11:16:22;103362.09;;;10.63;100.00
51687;BME280;37774;52.192;4.584;2023-04-03T11:19:13;103438.63;;;10.98;100.00
51687;BME280;37774;52.192;4.584;2023-04-03T11:22:13;103384.75;;;10.95;100.00
51687;BME280;37774;52.192;4.584;2023-04-03T11:25:04;103436.81;;;11.22;100.00
51687;BME280;37774;52.192;4.584;2023-04-03T11:27:55;103436.63;;;11.16;100.00
51687;BME280;37774;52.192;4.584;2023-04-03T11:30:46;103356.53;;;11.07;100.00
51687;BME280;37774;52.192;4.584;2023-04-03T11:33:42;103443.19;;;11.61;100.00
51687;BME280;37774;52.192;4.584;2023-04-03T11:36:32;103252.06;;;10.11;100.00
51687;BME280;37774;52.192;4.584;2023-04-03T11:39:22;103339.47;;;11.17;100.00
51687;BME280;37774;52.192;4.584;2023-04-03T11:42:15;103412.53;;;11.52;100.00
51687;BME280;37774;52.192;4.584;2023-04-03T11:45:25;103243.09;;;10.56;100.00
51687;BME280;37774;52.192;4.584;2023-04-03T11:48:42;102970.44;;;9.19;100.00
51687;BME280;37774;52.192;4.584;2023-04-03T11:51:39;103358.66;;;12.12;100.00
51687;BME280;37774;52.192;4.584;2023-04-03T11:54:51;102919.50;;;8.95;100.00
51687;BME280;37774;52.192;4.584;2023-04-03T11:58:03;103174.66;;;10.86;100.00
51687;BME280;37774;52.192;4.584;2023-04-03T12:01:04;102897.81;;;9.49;100.00
51687;BME280;37774;52.192;4.584;2023-04-03T12:04:11;103017.34;;;10.11;100.00
51687;BME280;37774;52.192;4.584;2023-04-03T12:07:19;102856.84;;;9.38;100.00
51687;BME280;37774;52.192;4.584;2023-04-03T12:10:20;102789.38;;;9.38;100.00
51687;BME280;37774;52.192;4.584;2023-04-03T12:13:14;103050.53;;;10.80;100.00
51687;BME280;37774;52.192;4.584;2023-04-03T12:16:02;103281.63;;;11.58;100.00
51687;BME280;37774;52.192;4.584;2023-04-03T12:19:00;103263.09;;;12.50;100.00
51687;BME280;37774;52.192;4.584;2023-04-03T12:22:13;103064.44;;;11.51;100.00
51687;BME280;37774;52.192;4.584;2023-04-03T12:28:24;102765.22;;;10.06;100.00
51687;BME280;37774;52.192;4.584;2023-04-03T12:31:15;103058.59;;;11.98;100.00
51687;BME280;37774;52.192;4.584;2023-04-03T12:34:17;103175.31;;;12.12;94.67
51687;BME280;37774;52.192;4.584;2023-04-03T12:37:17;102934.31;;;10.79;89.93
51687;BME280;37774;52.192;4.584;2023-04-03T12:40:14;102871.41;;;10.96;89.24
51687;BME280;37774;52.192;4.584;2023-04-03T12:43:14;103092.91;;;12.60;88.48
51687;BME280;37774;52.192;4.584;2023-04-03T12:46:12;103092.16;;;11.48;82.45
51687;BME280;37774;52.192;4.584;2023-04-03T12:48:59;103011.16;;;11.35;82.52
51687;BME280;37774;52.192;4.584;2023-04-03T12:51:46;103149.25;;;12.50;84.35
51687;BME280;37774;52.192;4.584;2023-04-03T12:54:35;103138.94;;;12.56;83.24
51687;BME280;37774;52.192;4.584;2023-04-03T12:57:26;102875.31;;;11.14;81.52
51687;BME280;37774;52.192;4.584;2023-04-03T13:00:29;103133.34;;;12.38;79.02
51687;BME280;37774;52.192;4.584;2023-04-03T13:03:40;103034.88;;;12.24;78.59
51687;BME280;37774;52.192;4.584;2023-04-03T13:06:27;103119.13;;;12.65;76.54
51687;BME280;37774;52.192;4.584;2023-04-03T13:09:20;103091.09;;;13.00;84.97
51687;BME280;37774;52.192;4.584;2023-04-03T13:12:12;102921.38;;;10.81;75.52
51687;BME280;37774;52.192;4.584;2023-04-03T13:15:11;102918.56;;;11.47;79.72
51687;BME280;37774;52.192;4.584;2023-04-03T13:17:57;102862.19;;;11.49;81.00
51687;BME280;37774;52.192;4.584;2023-04-03T13:20:48;103069.56;;;12.65;76.36
51687;BME280;37774;52.192;4.584;2023-04-03T13:23:38;103127.63;;;12.15;79.29
51687;BME280;37774;52.192;4.584;2023-04-03T13:26:31;102932.16;;;10.98;77.91
51687;BME280;37774;52.192;4.584;2023-04-03T13:29:22;103019.72;;;12.49;77.29
51687;BME280;37774;52.192;4.584;2023-04-03T13:32:18;102867.81;;;10.89;73.13
51687;BME280;37774;52.192;4.584;2023-04-03T13:35:26;103080.84;;;12.64;76.65
51687;BME280;37774;52.192;4.584;2023-04-03T13:38:25;102874.84;;;11.73;77.97
51687;BME280;37774;52.192;4.584;2023-04-03T13:41:25;102975.97;;;11.93;74.16
51687;BME280;37774;52.192;4.584;2023-04-03T13:44:26;102869.28;;;11.16;73.53
51687;BME280;37774;52.192;4.584;2023-04-03T13:47:18;103094.28;;;12.84;72.91
51687;BME280;37774;52.192;4.584;2023-04-03T13:50:16;103014.78;;;12.66;74.43
51687;BME280;37774;52.192;4.584;2023-04-03T13:53:08;103059.91;;;12.61;72.83
51687;BME280;37774;52.192;4.584;2023-04-03T13:56:05;102965.78;;;11.64;73.98
51687;BME280;37774;52.192;4.584;2023-04-03T13:58:59;102857.63;;;11.38;72.42
51687;BME280;37774;52.192;4.584;2023-04-03T14:01:49;103090.72;;;12.37;74.49
51687;BME280;37774;52.192;4.584;2023-04-03T14:04:52;102888.66;;;11.69;73.58
51687;BME280;37774;52.192;4.584;2023-04-03T14:07:42;103103.69;;;12.76;76.13
51687;BME280;37774;52.192;4.584;2023-04-03T14:10:29;103057.94;;;12.49;74.80
51687;BME280;37774;52.192;4.584;2023-04-03T14:13:18;102944.81;;;11.18;74.66
51687;BME280;37774;52.192;4.584;2023-04-03T14:16:06;102674.41;;;10.46;78.73
51687;BME280;37774;52.192;4.584;2023-04-03T14:18:51;102581.06;;;9.80;73.55
51687;BME280;37774;52.192;4.584;2023-04-03T14:21:37;103105.03;;;13.49;78.65
51687;BME280;37774;52.192;4.584;2023-04-03T14:24:23;102962.59;;;12.65;74.45
51687;BME280;37774;52.192;4.584;2023-04-03T14:27:16;102559.03;;;10.01;74.64
51687;BME280;37774;52.192;4.584;2023-04-03T14:30:05;102725.44;;;11.23;74.83
51687;BME280;37774;52.192;4.584;2023-04-03T14:32:54;102796.59;;;11.67;77.94
51687;BME280;37774;52.192;4.584;2023-04-03T14:35:40;102653.75;;;10.93;74.81
51687;BME280;37774;52.192;4.584;2023-04-03T14:38:28;102736.94;;;9.83;71.04
51687;BME280;37774;52.192;4.584;2023-04-03T14:41:16;102877.09;;;10.78;73.54
51687;BME280;37774;52.192;4.584;2023-04-03T14:44:02;103075.97;;;11.98;73.34